sensor_id;sensor_type;location;lat;lon;timestamp;pressure;altitude;pressure_sealevel;temperature;humidity
43155;BME280;34212;51.018;13.586;2023-03-01T00:03:07;99106.47;;;-1.14;82.08
43155;BME280;34212;51.018;13.586;2023-03-01T00:08:09;99110.03;;;-1.15;82.04
43155;BME280;34212;51.018;13.586;2023-03-01T00:13:10;99109.16;;;-1.16;81.80
43155;BME280;34212;51.018;13.586;2023-03-01T00:18:12;99111.88;;;-1.17;81.74
43155;BME280;34212;51.018;13.586;2023-03-01T00:23:13;99111.91;;;-1.19;81.51
43155;BME280;34212;51.018;13.586;2023-03-01T00:28:15;99099.84;;;-1.21;81.57
43155;BME280;34212;51.018;13.586;2023-03-01T00:33:18;99097.38;;;-1.24;81.54
43155;BME280;34212;51.018;13.586;2023-03-01T00:38:20;99101.06;;;-1.28;80.97
43155;BME280;34212;51.018;13.586;2023-03-01T00:43:21;99091.97;;;-1.38;81.27
43155;BME280;34212;51.018;13.586;2023-03-01T00:48:23;99093.47;;;-1.52;80.81
43155;BME280;34212;51.018;13.586;2023-03-01T00:53:24;99079.44;;;-1.68;81.51
43155;BME280;34212;51.018;13.586;2023-03-01T00:58:26;99074.47;;;-1.74;81.46
43155;BME280;34212;51.018;13.586;2023-03-01T01:03:28;99074.63;;;-1.77;81.09
43155;BME280;34212;51.018;13.586;2023-03-01T01:08:29;99071.22;;;-1.79;80.64
43155;BME280;34212;51.018;13.586;2023-03-01T01:13:31;99068.59;;;-1.79;80.60
43155;BME280;34212;51.018;13.586;2023-03-01T01:18:32;99064.31;;;-1.80;80.40
43155;BME280;34212;51.018;13.586;2023-03-01T01:23:34;99072.91;;;-1.78;80.70
43155;BME280;34212;51.018;13.586;2023-03-01T01:28:36;99059.97;;;-1.81;80.74
43155;BME280;34212;51.018;13.586;2023-03-01T01:33:38;99051.22;;;-1.80;80.58
43155;BME280;34212;51.018;13.586;2023-03-01T01:38:39;99046.75;;;-1.78;80.40
43155;BME280;34212;51.018;13.586;2023-03-01T01:43:48;99039.69;;;-1.76;80.33
43155;BME280;34212;51.018;13.586;2023-03-01T01:49:02;99037.88;;;-1.74;80.37
43155;BME280;34212;51.018;13.586;2023-03-01T01:54:09;99031.91;;;-1.78;80.24
43155;BME280;34212;51.018;13.586;2023-03-01T01:59:13;99035.44;;;-1.79;80.40
43155;BME280;34212;51.018;13.586;2023-03-01T02:04:15;99036.28;;;-1.78;80.45
43155;BME280;34212;51.018;13.586;2023-03-01T02:09:19;99047.84;;;-1.82;80.30
43155;BME280;34212;51.018;13.586;2023-03-01T02:14:22;99031.50;;;-1.88;80.15
43155;BME280;34212;51.018;13.586;2023-03-01T02:19:37;99034.91;;;-1.86;80.36
43155;BME280;34212;51.018;13.586;2023-03-01T02:29:49;99020.28;;;-1.90;79.52
43155;BME280;34212;51.018;13.586;2023-03-01T02:34:52;99014.69;;;-2.01;79.86
43155;BME280;34212;51.018;13.586;2023-03-01T02:39:58;99009.19;;;-2.14;79.60
43155;BME280;34212;51.018;13.586;2023-03-01T02:45:01;99010.47;;;-2.22;79.76
43155;BME280;34212;51.018;13.586;2023-03-01T02:50:13;99007.19;;;-2.27;79.51
43155;BME280;34212;51.018;13.586;2023-03-01T02:55:20;99006.72;;;-2.36;79.44
43155;BME280;34212;51.018;13.586;2023-03-01T03:00:32;99005.09;;;-2.38;79.01
43155;BME280;34212;51.018;13.586;2023-03-01T03:05:37;99002.56;;;-2.40;78.67
43155;BME280;34212;51.018;13.586;2023-03-01T03:10:40;98996.47;;;-2.40;78.29
43155;BME280;34212;51.018;13.586;2023-03-01T03:15:43;98980.22;;;-2.47;78.32
43155;BME280;34212;51.018;13.586;2023-03-01T03:20:45;98996.97;;;-2.51;78.43
43155;BME280;34212;51.018;13.586;2023-03-01T03:25:50;98989.13;;;-2.51;78.57
43155;BME280;34212;51.018;13.586;2023-03-01T03:30:52;98981.94;;;-2.46;79.04
43155;BME280;34212;51.018;13.586;2023-03-01T03:35:53;98981.81;;;-2.43;79.48
43155;BME280;34212;51.018;13.586;2023-03-01T03:41:04;98973.03;;;-2.42;78.97
43155;BME280;34212;51.018;13.586;2023-03-01T03:46:07;98974.94;;;-2.45;78.93
43155;BME280;34212;51.018;13.586;2023-03-01T03:51:16;98962.16;;;-2.51;78.39
43155;BME280;34212;51.018;13.586;2023-03-01T03:56:18;98969.28;;;-2.55;78.63
43155;BME280;34212;51.018;13.586;2023-03-01T04:01:19;98982.34;;;-2.55;78.60
43155;BME280;34212;51.018;13.586;2023-03-01T04:06:21;98981.44;;;-2.54;78.79
43155;BME280;34212;51.018;13.586;2023-03-01T04:11:23;98982.50;;;-2.58;78.70
43155;BME280;34212;51.018;13.586;2023-03-01T04:16:27;98983.88;;;-2.70;78.49
43155;BME280;34212;51.018;13.586;2023-03-01T04:21:30;98980.97;;;-2.83;78.45
43155;BME280;34212;51.018;13.586;2023-03-01T04:26:31;98974.31;;;-2.90;78.86
43155;BME280;34212;51.018;13.586;2023-03-01T04:31:33;98972.63;;;-2.91;78.36
43155;BME280;34212;51.018;13.586;2023-03-01T04:36:35;98966.34;;;-2.87;78.54
43155;BME280;34212;51.018;13.586;2023-03-01T04:41:38;98966.94;;;-2.80;78.64
43155;BME280;34212;51.018;13.586;2023-03-01T04:46:40;98977.31;;;-2.79;78.36
43155;BME280;34212;51.018;13.586;2023-03-01T04:51:42;98977.25;;;-2.77;78.16
43155;BME280;34212;51.018;13.586;2023-03-01T04:56:44;98981.72;;;-2.81;77.76
43155;BME280;34212;51.018;13.586;2023-03-01T05:01:46;98960.13;;;-2.84;77.86
43155;BME280;34212;51.018;13.586;2023-03-01T05:06:47;98966.47;;;-2.90;77.82
43155;BME280;34212;51.018;13.586;2023-03-01T05:11:49;98980.72;;;-2.97;77.53
43155;BME280;34212;51.018;13.586;2023-03-01T05:16:51;98979.03;;;-2.98;77.90
43155;BME280;34212;51.018;13.586;2023-03-01T05:21:53;98959.00;;;-2.97;77.92
43155;BME280;34212;51.018;13.586;2023-03-01T05:27:03;98959.78;;;-2.95;78.06
43155;BME280;34212;51.018;13.586;2023-03-01T05:32:05;98958.16;;;-2.98;77.81
43155;BME280;34212;51.018;13.586;2023-03-01T05:37:07;98953.09;;;-3.03;77.75
43155;BME280;34212;51.018;13.586;2023-03-01T05:42:10;98945.22;;;-3.01;77.31
43155;BME280;34212;51.018;13.586;2023-03-01T05:47:12;98950.31;;;-2.98;77.40
43155;BME280;34212;51.018;13.586;2023-03-01T05:52:14;98954.59;;;-2.97;77.73
43155;BME280;34212;51.018;13.586;2023-03-01T05:57:16;98960.75;;;-2.98;77.52
43155;BME280;34212;51.018;13.586;2023-03-01T06:02:17;98967.88;;;-3.02;77.41
43155;BME280;34212;51.018;13.586;2023-03-01T06:07:19;98960.88;;;-3.01;77.46
43155;BME280;34212;51.018;13.586;2023-03-01T06:12:21;98965.44;;;-3.06;77.28
43155;BME280;34212;51.018;13.586;2023-03-01T06:17:23;98963.75;;;-3.07;77.70
43155;BME280;34212;51.018;13.586;2023-03-01T06:22:24;98964.75;;;-3.10;77.86
43155;BME280;34212;51.018;13.586;2023-03-01T06:27:27;98970.94;;;-3.12;78.29
43155;BME280;34212;51.018;13.586;2023-03-01T06:32:28;98966.56;;;-3.12;78.02
43155;BME280;34212;51.018;13.586;2023-03-01T06:37:31;98970.53;;;-3.03;78.56
43155;BME280;34212;51.018;13.586;2023-03-01T06:42:34;98977.03;;;-2.93;78.55
43155;BME280;34212;51.018;13.586;2023-03-01T06:47:36;98970.53;;;-2.83;78.66
43155;BME280;34212;51.018;13.586;2023-03-01T06:52:37;98978.66;;;-2.70;78.99
43155;BME280;34212;51.018;13.586;2023-03-01T06:57:39;98978.03;;;-2.56;79.80
43155;BME280;34212;51.018;13.586;2023-03-01T07:02:40;98987.03;;;-2.43;79.79
43155;BME280;34212;51.018;13.586;2023-03-01T07:07:42;98983.06;;;-2.33;80.32
43155;BME280;34212;51.018;13.586;2023-03-01T07:12:43;98977.28;;;-2.20;80.79
43155;BME280;34212;51.018;13.586;2023-03-01T07:17:45;98976.00;;;-2.12;80.85
43155;BME280;34212;51.018;13.586;2023-03-01T07:22:49;98975.22;;;-2.14;81.10
43155;BME280;34212;51.018;13.586;2023-03-01T07:27:51;98965.16;;;-2.04;81.65
43155;BME280;34212;51.018;13.586;2023-03-01T07:32:57;98962.97;;;-1.94;82.16
43155;BME280;34212;51.018;13.586;2023-03-01T07:37:59;98967.06;;;-1.89;82.21
43155;BME280;34212;51.018;13.586;2023-03-01T07:43:01;98963.84;;;-1.76;82.29
43155;BME280;34212;51.018;13.586;2023-03-01T07:48:02;98963.84;;;-1.59;82.78
43155;BME280;34212;51.018;13.586;2023-03-01T07:53:04;98956.97;;;-1.43;83.24
43155;BME280;34212;51.018;13.586;2023-03-01T07:58:06;98953.56;;;-1.27;83.74
43155;BME280;34212;51.018;13.586;2023-03-01T08:03:17;98945.69;;;-1.10;84.13
43155;BME280;34212;51.018;13.586;2023-03-01T08:08:19;98954.38;;;-0.92;84.67
43155;BME280;34212;51.018;13.586;2023-03-01T08:13:20;98940.31;;;-0.74;85.46
43155;BME280;34212;51.018;13.586;2023-03-01T08:18:24;98934.25;;;-0.58;86.13
43155;BME280;34212;51.018;13.586;2023-03-01T08:23:26;98924.03;;;-0.47;86.27
43155;BME280;34212;51.018;13.586;2023-03-01T08:28:28;98921.66;;;-0.36;86.12
43155;BME280;34212;51.018;13.586;2023-03-01T08:33:29;98923.03;;;-0.29;86.59
43155;BME280;34212;51.018;13.586;2023-03-01T08:38:30;98926.91;;;-0.20;86.96
43155;BME280;34212;51.018;13.586;2023-03-01T08:43:32;98936.06;;;-0.11;87.12
43155;BME280;34212;51.018;13.586;2023-03-01T08:48:34;98926.56;;;0.02;87.63
43155;BME280;34212;51.018;13.586;2023-03-01T08:53:35;98927.81;;;0.11;87.56
43155;BME280;34212;51.018;13.586;2023-03-01T08:58:37;98912.22;;;0.23;88.33
43155;BME280;34212;51.018;13.586;2023-03-01T09:03:39;98913.47;;;0.32;88.24
43155;BME280;34212;51.018;13.586;2023-03-01T09:08:43;98919.22;;;0.39;88.26
43155;BME280;34212;51.018;13.586;2023-03-01T09:13:46;98918.69;;;0.48;88.66
43155;BME280;34212;51.018;13.586;2023-03-01T09:18:53;98908.59;;;0.56;88.77
43155;BME280;34212;51.018;13.586;2023-03-01T09:23:56;98904.38;;;0.68;89.37
43155;BME280;34212;51.018;13.586;2023-03-01T09:28:58;98890.69;;;0.77;89.28
43155;BME280;34212;51.018;13.586;2023-03-01T09:34:00;98885.00;;;0.85;89.34
43155;BME280;34212;51.018;13.586;2023-03-01T09:39:02;98889.78;;;0.92;89.71
43155;BME280;34212;51.018;13.586;2023-03-01T09:44:24;98889.31;;;1.00;89.77
43155;BME280;34212;51.018;13.586;2023-03-01T09:49:35;98895.06;;;1.07;89.74
43155;BME280;34212;51.018;13.586;2023-03-01T09:54:40;98898.97;;;1.14;90.20
43155;BME280;34212;51.018;13.586;2023-03-01T10:00:00;98894.94;;;1.23;90.06
43155;BME280;34212;51.018;13.586;2023-03-01T10:10:33;98889.19;;;1.45;90.43
43155;BME280;34212;51.018;13.586;2023-03-01T10:15:39;98891.91;;;1.57;90.58
43155;BME280;34212;51.018;13.586;2023-03-01T10:20:53;98892.06;;;1.69;90.50
43155;BME280;34212;51.018;13.586;2023-03-01T10:31:27;98897.41;;;1.81;90.44
43155;BME280;34212;51.018;13.586;2023-03-01T10:36:32;98888.16;;;1.89;89.96
43155;BME280;34212;51.018;13.586;2023-03-01T10:41:34;98894.72;;;1.96;90.23
43155;BME280;34212;51.018;13.586;2023-03-01T10:46:41;98885.50;;;2.03;89.99
43155;BME280;34212;51.018;13.586;2023-03-01T10:51:45;98874.38;;;2.12;90.11
43155;BME280;34212;51.018;13.586;2023-03-01T10:56:52;98875.31;;;2.24;90.45
43155;BME280;34212;51.018;13.586;2023-03-01T11:02:16;98862.41;;;2.34;90.33
43155;BME280;34212;51.018;13.586;2023-03-01T11:07:26;98868.75;;;2.44;90.00
43155;BME280;34212;51.018;13.586;2023-03-01T11:12:27;98866.53;;;2.50;90.27
43155;BME280;34212;51.018;13.586;2023-03-01T11:17:31;98855.06;;;2.64;90.50
43155;BME280;34212;51.018;13.586;2023-03-01T11:22:54;98845.41;;;2.77;90.47
43155;BME280;34212;51.018;13.586;2023-03-01T11:27:58;98842.84;;;2.89;91.10
43155;BME280;34212;51.018;13.586;2023-03-01T11:33:17;98845.81;;;2.97;91.10
43155;BME280;34212;51.018;13.586;2023-03-01T11:38:24;98845.03;;;3.08;91.53
43155;BME280;34212;51.018;13.586;2023-03-01T11:43:33;98839.88;;;3.19;91.18
43155;BME280;34212;51.018;13.586;2023-03-01T11:48:56;98853.13;;;3.30;91.46
43155;BME280;34212;51.018;13.586;2023-03-01T11:59:30;98844.66;;;3.51;91.42
43155;BME280;34212;51.018;13.586;2023-03-01T12:05:00;98836.69;;;3.63;91.03
43155;BME280;34212;51.018;13.586;2023-03-01T12:10:20;98832.44;;;3.74;90.92
43155;BME280;34212;51.018;13.586;2023-03-01T12:31:59;98798.84;;;4.00;90.40
43155;BME280;34212;51.018;13.586;2023-03-01T12:37:50;98795.63;;;4.07;90.53
43155;BME280;34212;51.018;13.586;2023-03-01T12:48:30;98773.59;;;4.20;90.51
43155;BME280;34212;51.018;13.586;2023-03-01T12:53:40;98780.09;;;4.27;90.69
43155;BME280;34212;51.018;13.586;2023-03-01T12:58:49;98779.75;;;4.31;90.49
43155;BME280;34212;51.018;13.586;2023-03-01T13:19:34;98770.41;;;5.40;95.72
43155;BME280;34212;51.018;13.586;2023-03-01T13:24:40;98752.66;;;7.29;96.25
43155;BME280;34212;51.018;13.586;2023-03-01T13:34:51;98767.88;;;10.01;86.08
43155;BME280;34212;51.018;13.586;2023-03-01T13:39:53;98762.31;;;10.30;85.25
43155;BME280;34212;51.018;13.586;2023-03-01T13:44:55;98756.09;;;10.03;86.31
43155;BME280;34212;51.018;13.586;2023-03-01T13:49:59;98755.47;;;9.74;85.01
43155;BME280;34212;51.018;13.586;2023-03-01T13:55:04;98750.50;;;9.15;85.07
43155;BME280;34212;51.018;13.586;2023-03-01T14:05:26;98746.50;;;7.28;87.69
43155;BME280;34212;51.018;13.586;2023-03-01T14:10:35;98741.09;;;6.59;89.22
43155;BME280;34212;51.018;13.586;2023-03-01T14:15:42;98743.78;;;6.17;91.06
43155;BME280;34212;51.018;13.586;2023-03-01T14:20:49;98734.28;;;5.82;91.89
43155;BME280;34212;51.018;13.586;2023-03-01T14:25:55;98734.38;;;5.60;92.89
43155;BME280;34212;51.018;13.586;2023-03-01T14:30:59;98716.66;;;5.39;93.30
43155;BME280;34212;51.018;13.586;2023-03-01T14:36:09;98725.44;;;5.28;93.35
43155;BME280;34212;51.018;13.586;2023-03-01T14:41:20;98727.25;;;5.17;93.27
43155;BME280;34212;51.018;13.586;2023-03-01T14:46:30;98720.94;;;5.08;93.04
43155;BME280;34212;51.018;13.586;2023-03-01T14:51:38;98710.13;;;5.00;93.70
43155;BME280;34212;51.018;13.586;2023-03-01T14:56:45;98706.16;;;4.94;93.43
43155;BME280;34212;51.018;13.586;2023-03-01T15:01:47;98707.63;;;4.87;93.85
43155;BME280;34212;51.018;13.586;2023-03-01T15:06:53;98709.78;;;4.82;94.14
43155;BME280;34212;51.018;13.586;2023-03-01T15:11:55;98707.59;;;4.76;93.64
43155;BME280;34212;51.018;13.586;2023-03-01T15:16:56;98706.19;;;4.72;92.90
43155;BME280;34212;51.018;13.586;2023-03-01T15:21:58;98697.75;;;4.67;93.37
43155;BME280;34212;51.018;13.586;2023-03-01T15:27:00;98703.28;;;4.63;92.67
43155;BME280;34212;51.018;13.586;2023-03-01T15:32:32;98707.28;;;4.58;92.44
43155;BME280;34212;51.018;13.586;2023-03-01T15:37:39;98708.84;;;4.49;92.43
43155;BME280;34212;51.018;13.586;2023-03-01T15:42:41;98702.09;;;4.45;92.60
43155;BME280;34212;51.018;13.586;2023-03-01T15:47:56;98696.94;;;4.44;92.69
43155;BME280;34212;51.018;13.586;2023-03-01T15:53:00;98684.94;;;4.39;92.44
43155;BME280;34212;51.018;13.586;2023-03-01T15:58:20;98687.91;;;4.35;92.22
43155;BME280;34212;51.018;13.586;2023-03-01T16:03:22;98682.03;;;4.31;92.17
43155;BME280;34212;51.018;13.586;2023-03-01T16:08:24;98685.03;;;4.27;91.60
43155;BME280;34212;51.018;13.586;2023-03-01T16:13:26;98682.88;;;4.21;91.58
43155;BME280;34212;51.018;13.586;2023-03-01T16:18:29;98690.41;;;4.14;90.92
43155;BME280;34212;51.018;13.586;2023-03-01T16:23:31;98694.50;;;4.07;91.45
43155;BME280;34212;51.018;13.586;2023-03-01T16:28:32;98698.56;;;4.00;91.01
43155;BME280;34212;51.018;13.586;2023-03-01T16:33:34;98705.38;;;3.91;90.97
43155;BME280;34212;51.018;13.586;2023-03-01T16:38:36;98703.41;;;3.82;90.76
43155;BME280;34212;51.018;13.586;2023-03-01T16:43:38;98707.81;;;3.70;90.06
43155;BME280;34212;51.018;13.586;2023-03-01T16:48:41;98711.25;;;3.59;90.06
43155;BME280;34212;51.018;13.586;2023-03-01T16:53:43;98703.28;;;3.48;89.46
43155;BME280;34212;51.018;13.586;2023-03-01T16:58:47;98697.03;;;3.38;89.34
43155;BME280;34212;51.018;13.586;2023-03-01T17:03:49;98703.72;;;3.31;89.02
43155;BME280;34212;51.018;13.586;2023-03-01T17:08:50;98707.00;;;3.21;88.65
43155;BME280;34212;51.018;13.586;2023-03-01T17:13:52;98705.75;;;3.14;89.18
43155;BME280;34212;51.018;13.586;2023-03-01T17:18:54;98699.38;;;3.06;89.06
43155;BME280;34212;51.018;13.586;2023-03-01T17:23:57;98705.19;;;2.98;88.74
43155;BME280;34212;51.018;13.586;2023-03-01T17:28:59;98710.06;;;2.91;88.45
43155;BME280;34212;51.018;13.586;2023-03-01T17:34:01;98717.78;;;2.82;88.76
43155;BME280;34212;51.018;13.586;2023-03-01T17:39:03;98722.72;;;2.73;88.94
43155;BME280;34212;51.018;13.586;2023-03-01T17:44:04;98728.44;;;2.67;88.56
43155;BME280;34212;51.018;13.586;2023-03-01T17:49:06;98726.22;;;2.61;88.76
43155;BME280;34212;51.018;13.586;2023-03-01T17:54:07;98723.41;;;2.51;88.49
43155;BME280;34212;51.018;13.586;2023-03-01T17:59:09;98725.75;;;2.43;88.51
43155;BME280;34212;51.018;13.586;2023-03-01T18:04:10;98716.47;;;2.38;88.65
43155;BME280;34212;51.018;13.586;2023-03-01T18:09:12;98720.03;;;2.37;88.88
43155;BME280;34212;51.018;13.586;2023-03-01T18:14:14;98721.72;;;2.38;88.58
43155;BME280;34212;51.018;13.586;2023-03-01T18:19:16;98723.41;;;2.39;88.78
43155;BME280;34212;51.018;13.586;2023-03-01T18:24:17;98717.94;;;2.42;89.27
43155;BME280;34212;51.018;13.586;2023-03-01T18:29:19;98718.69;;;2.44;89.30
43155;BME280;34212;51.018;13.586;2023-03-01T18:34:21;98713.19;;;2.47;88.95
43155;BME280;34212;51.018;13.586;2023-03-01T18:39:23;98715.50;;;2.39;88.15
43155;BME280;34212;51.018;13.586;2023-03-01T18:44:25;98707.28;;;2.18;87.62
43155;BME280;34212;51.018;13.586;2023-03-01T18:49:26;98704.56;;;2.06;87.61
43155;BME280;34212;51.018;13.586;2023-03-01T18:54:28;98709.41;;;2.00;88.00
43155;BME280;34212;51.018;13.586;2023-03-01T18:59:29;98708.13;;;1.93;87.75
43155;BME280;34212;51.018;13.586;2023-03-01T19:04:31;98702.56;;;1.84;87.94
43155;BME280;34212;51.018;13.586;2023-03-01T19:09:33;98698.63;;;1.77;87.65
43155;BME280;34212;51.018;13.586;2023-03-01T19:14:34;98702.34;;;1.75;87.84
43155;BME280;34212;51.018;13.586;2023-03-01T19:19:37;98704.84;;;1.76;88.48
43155;BME280;34212;51.018;13.586;2023-03-01T19:24:39;98699.38;;;1.79;88.29
43155;BME280;34212;51.018;13.586;2023-03-01T19:29:42;98702.97;;;1.78;87.86
43155;BME280;34212;51.018;13.586;2023-03-01T19:34:44;98701.81;;;1.82;88.51
43155;BME280;34212;51.018;13.586;2023-03-01T19:39:46;98698.97;;;1.85;88.34
43155;BME280;34212;51.018;13.586;2023-03-01T19:44:48;98692.03;;;1.84;88.12
43155;BME280;34212;51.018;13.586;2023-03-01T19:49:49;98676.47;;;1.81;88.21
43155;BME280;34212;51.018;13.586;2023-03-01T19:54:51;98692.25;;;1.81;87.83
43155;BME280;34212;51.018;13.586;2023-03-01T20:00:05;98688.09;;;1.77;87.43
43155;BME280;34212;51.018;13.586;2023-03-01T20:05:12;98701.88;;;1.68;87.77
43155;BME280;34212;51.018;13.586;2023-03-01T20:10:14;98711.13;;;1.61;87.21
43155;BME280;34212;51.018;13.586;2023-03-01T20:15:15;98708.19;;;1.53;87.50
43155;BME280;34212;51.018;13.586;2023-03-01T20:20:17;98705.53;;;1.53;88.10
43155;BME280;34212;51.018;13.586;2023-03-01T20:25:18;98695.75;;;1.55;88.56
43155;BME280;34212;51.018;13.586;2023-03-01T20:30:20;98694.72;;;1.57;87.77
43155;BME280;34212;51.018;13.586;2023-03-01T20:35:21;98693.03;;;1.56;87.83
43155;BME280;34212;51.018;13.586;2023-03-01T20:40:24;98687.88;;;1.55;87.73
43155;BME280;34212;51.018;13.586;2023-03-01T20:45:28;98681.88;;;1.53;87.71
43155;BME280;34212;51.018;13.586;2023-03-01T20:50:30;98689.03;;;1.51;87.95
43155;BME280;34212;51.018;13.586;2023-03-01T20:55:32;98682.81;;;1.52;88.08
43155;BME280;34212;51.018;13.586;2023-03-01T21:00:33;98686.28;;;1.52;88.06
43155;BME280;34212;51.018;13.586;2023-03-01T21:05:35;98693.25;;;1.53;87.68
43155;BME280;34212;51.018;13.586;2023-03-01T21:10:36;98685.44;;;1.52;87.92
43155;BME280;34212;51.018;13.586;2023-03-01T21:15:38;98668.75;;;1.53;87.70
43155;BME280;34212;51.018;13.586;2023-03-01T21:20:39;98665.03;;;1.55;88.07
43155;BME280;34212;51.018;13.586;2023-03-01T21:26:18;98652.84;;;1.54;87.70
43155;BME280;34212;51.018;13.586;2023-03-01T21:31:13;98664.41;;;1.52;88.06
43155;BME280;34212;51.018;13.586;2023-03-01T21:36:15;98661.06;;;1.50;87.50
43155;BME280;34212;51.018;13.586;2023-03-01T21:41:23;98659.47;;;1.47;87.50
43155;BME280;34212;51.018;13.586;2023-03-01T21:46:27;98665.75;;;1.45;87.56
43155;BME280;34212;51.018;13.586;2023-03-01T21:51:31;98671.97;;;1.44;87.47
43155;BME280;34212;51.018;13.586;2023-03-01T21:56:34;98657.44;;;1.38;87.34
43155;BME280;34212;51.018;13.586;2023-03-01T22:01:38;98648.56;;;1.26;86.87
43155;BME280;34212;51.018;13.586;2023-03-01T22:06:42;98648.34;;;1.17;86.55
43155;BME280;34212;51.018;13.586;2023-03-01T22:11:46;98634.00;;;1.08;86.51
43155;BME280;34212;51.018;13.586;2023-03-01T22:16:49;98638.06;;;0.99;86.46
43155;BME280;34212;51.018;13.586;2023-03-01T22:21:52;98630.50;;;0.95;86.51
43155;BME280;34212;51.018;13.586;2023-03-01T22:26:53;98641.09;;;0.93;86.53
43155;BME280;34212;51.018;13.586;2023-03-01T22:31:56;98628.28;;;0.88;86.43
43155;BME280;34212;51.018;13.586;2023-03-01T22:36:58;98631.19;;;0.84;86.48
43155;BME280;34212;51.018;13.586;2023-03-01T22:42:00;98639.38;;;0.79;86.61
43155;BME280;34212;51.018;13.586;2023-03-01T22:47:01;98629.25;;;0.73;86.49
43155;BME280;34212;51.018;13.586;2023-03-01T22:52:03;98636.50;;;0.69;86.77
43155;BME280;34212;51.018;13.586;2023-03-01T22:57:05;98631.31;;;0.68;86.53
43155;BME280;34212;51.018;13.586;2023-03-01T23:02:06;98622.09;;;0.62;86.70
43155;BME280;34212;51.018;13.586;2023-03-01T23:07:08;98624.97;;;0.58;86.70
43155;BME280;34212;51.018;13.586;2023-03-01T23:12:09;98624.34;;;0.54;86.75
43155;BME280;34212;51.018;13.586;2023-03-01T23:17:11;98629.59;;;0.54;88.36
43155;BME280;34212;51.018;13.586;2023-03-01T23:22:13;98632.09;;;0.56;88.41
43155;BME280;34212;51.018;13.586;2023-03-01T23:27:14;98621.59;;;0.56;88.26
43155;BME280;34212;51.018;13.586;2023-03-01T23:32:18;98626.31;;;0.51;88.50
43155;BME280;34212;51.018;13.586;2023-03-01T23:37:20;98622.94;;;0.49;88.51
43155;BME280;34212;51.018;13.586;2023-03-01T23:42:21;98627.44;;;0.46;88.15
43155;BME280;34212;51.018;13.586;2023-03-01T23:47:23;98624.28;;;0.41;87.73
43155;BME280;34212;51.018;13.586;2023-03-01T23:52:24;98620.25;;;0.36;87.71
43155;BME280;34212;51.018;13.586;2023-03-01T23:57:26;98616.97;;;0.32;87.66
